Time;durP1;ratioP1;P1;durP2;ratioP2;P2;SDS_P1;SDS_P2;PMS_P1;PMS_P2;Temp;Humidity;BMP_temperature;BMP_pressure;BME280_temperature;BME280_humidity;BME280_pressure;Samples;Min_cycle;Max_cycle;Signal;HPM_P1;HPM_P2
2022/08/29 00:01:21;;;;;;;7.72;3.67;;;;;;;17.82;88.93;99504.92;1795709;79;20918;-62
2022/08/29 00:03:47;;;;;;;12.45;4.05;;;;;;;17.81;88.97;99511.63;1794217;79;20880;-62
2022/08/29 00:06:14;;;;;;;7.97;3.58;;;;;;;17.79;88.86;99518.86;1788547;79;20972;-62
2022/08/29 00:08:41;;;;;;;7.10;4.03;;;;;;;17.76;89.10;99518.59;1793722;79;21028;-62
2022/08/29 00:11:07;;;;;;;13.60;4.17;;;;;;;17.76;89.21;99519.08;1791995;78;20903;-62
2022/08/29 00:13:34;;;;;;;9.73;4.40;;;;;;;17.75;89.23;99510.78;1792940;78;21435;-62
2022/08/29 00:16:02;;;;;;;;;;;;;;;17.72;89.30;99509.70;1791418;79;20995;-62
2022/08/29 00:18:29;;;;;;;7.35;3.72;;;;;;;17.70;89.47;99505.02;1795100;79;20090;-62
2022/08/29 00:20:56;;;;;;;10.35;4.60;;;;;;;17.70;89.37;99511.63;1791508;79;21918;-62
2022/08/29 00:23:23;;;;;;;10.03;4.95;;;;;;;17.68;89.49;99504.67;1788962;79;20887;-62
2022/08/29 00:25:50;;;;;;;8.55;3.72;;;;;;;17.71;89.55;99505.41;1790915;78;20943;-62
2022/08/29 00:28:16;;;;;;;11.00;4.30;;;;;;;17.73;89.60;99500.81;1792605;79;21448;-62
2022/08/29 00:30:43;;;;;;;10.35;4.72;;;;;;;17.75;89.60;99501.54;1787745;79;21413;-62
2022/08/29 00:33:10;;;;;;;8.88;4.15;;;;;;;17.75;89.66;99500.22;1782418;79;21466;-63
2022/08/29 00:35:39;;;;;;;9.13;4.08;;;;;;;17.73;89.60;99500.81;1779816;80;20923;-62
2022/08/29 00:38:09;;;;;;;11.05;4.53;;;;;;;17.70;89.55;99501.06;1778821;80;20876;-62
2022/08/29 00:40:41;;;;;;;13.60;4.25;;;;;;;17.68;89.72;99495.44;1782418;80;20867;-62
2022/08/29 00:43:08;;;;;;;8.73;3.87;;;;;;;17.65;89.70;99493.05;1779816;79;21452;-63
2022/08/29 00:45:41;;;;;;;7.72;3.87;;;;;;;17.62;89.58;99483.22;1775068;79;21493;-62
2022/08/29 00:48:13;;;;;;;8.10;3.67;;;;;;;17.57;89.67;99483.58;1778798;80;21450;-63
2022/08/29 00:50:45;;;;;;;10.15;3.83;;;;;;;17.53;89.75;99483.48;1774036;80;21508;-62
2022/08/29 00:53:16;;;;;;;8.43;3.20;;;;;;;17.50;89.83;99479.73;1771567;80;20988;-62
2022/08/29 00:55:46;;;;;;;7.83;3.58;;;;;;;17.47;89.82;99479.98;1776301;80;20969;-62
2022/08/29 00:58:24;;;;;;;9.50;3.98;;;;;;;17.38;89.96;99475.45;1776785;80;21047;-62
2022/08/29 01:00:52;;;;;;;10.70;3.92;;;;;;;17.30;90.14;99469.94;1774622;80;21638;-62
2022/08/29 01:03:19;;;;;;;11.78;4.37;;;;;;;17.28;90.27;99471.84;1771559;80;20891;-63
2022/08/29 01:05:47;;;;;;;11.73;4.10;;;;;;;17.23;90.41;99473.06;1774424;79;20966;-62
2022/08/29 01:08:14;;;;;;;8.28;3.42;;;;;;;17.23;90.47;99467.79;1773369;80;20994;-62
2022/08/29 01:13:31;;;;;;;7.90;3.47;;;;;;;17.17;90.70;99464.32;1777141;79;20918;-62
2022/08/29 01:15:58;;;;;;;9.00;3.30;;;;;;;17.15;90.60;99463.59;1776542;80;20915;-62
2022/08/29 01:18:30;;;;;;;8.25;3.60;;;;;;;17.11;90.60;99454.26;1776202;80;20943;-62
2022/08/29 01:21:39;;;;;;;10.25;4.10;;;;;;;17.08;90.76;99450.52;1769467;80;20970;-62
2022/08/29 01:24:32;;;;;;;9.73;4.17;;;;;;;17.11;90.87;99443.70;1771720;79;21111;-62
2022/08/29 01:26:59;;;;;;;8.63;3.72;;;;;;;17.10;90.90;99440.69;1774668;80;20950;-62
2022/08/29 01:29:27;;;;;;;7.50;3.72;;;;;;;17.07;90.81;99444.89;1774360;80;20950;-62
2022/08/29 01:31:54;;;;;;;10.90;4.00;;;;;;;17.05;90.78;99441.52;1772903;79;20903;-62
2022/08/29 01:34:21;;;;;;;;;;;;;;;17.02;90.89;99444.41;1763479;80;21423;-62
2022/08/29 01:36:55;;;;;;;9.70;3.83;;;;;;;17.01;91.04;99444.06;1764972;79;21050;-62
2022/08/29 01:39:27;;;;;;;7.72;3.20;;;;;;;17.01;91.03;99437.47;1760742;80;20963;-62
2022/08/29 01:41:55;;;;;;;17.00;3.72;;;;;;;17.02;91.01;99440.45;1760056;80;20919;-63
2022/08/29 01:44:24;;;;;;;10.35;4.10;;;;;;;17.06;90.72;99437.95;1757010;80;20948;-62
2022/08/29 01:46:54;;;;;;;7.42;4.03;;;;;;;17.07;90.67;99435.66;1759485;80;20942;-62
2022/08/29 01:49:22;;;;;;;6.03;3.35;;;;;;;17.10;90.49;99432.77;1760587;80;21567;-62
2022/08/29 01:51:49;;;;;;;9.28;3.92;;;;;;;17.06;90.45;99433.99;1760111;80;21442;-62
2022/08/29 01:54:17;;;;;;;11.60;3.55;;;;;;;17.03;90.47;99440.83;1773331;80;20929;-62
2022/08/29 01:56:47;;;;;;;8.15;3.22;;;;;;;17.02;90.55;99437.81;1760755;80;21019;-62
2022/08/29 01:59:17;;;;;;;8.68;2.92;;;;;;;17.00;90.55;99442.39;1764043;79;20915;-62
2022/08/29 02:01:56;;;;;;;12.35;4.10;;;;;;;17.02;90.66;99447.05;1759806;80;21115;-62
2022/08/29 02:04:22;;;;;;;9.30;3.92;;;;;;;17.03;90.61;99447.42;1775039;79;20997;-62
2022/08/29 02:06:49;;;;;;;9.90;3.80;;;;;;;17.03;90.65;99450.52;1775830;79;20923;-62
2022/08/29 02:09:16;;;;;;;9.80;4.00;;;;;;;17.02;90.66;99447.05;1773946;79;20961;-62
2022/08/29 02:11:45;;;;;;;11.18;3.65;;;;;;;17.03;90.65;99452.70;1774741;79;21005;-62
2022/08/29 02:14:11;;;;;;;6.65;3.20;;;;;;;17.05;90.68;99449.92;1773926;79;21047;-62
2022/08/29 02:16:38;;;;;;;9.18;3.58;;;;;;;17.04;90.68;99446.45;1775911;79;20878;-62
2022/08/29 02:19:05;;;;;;;10.98;3.90;;;;;;;17.04;90.71;99445.62;1777001;79;21432;-62
2022/08/29 02:21:31;;;;;;;7.28;3.70;;;;;;;17.02;90.67;99441.77;1771777;79;20951;-62
2022/08/29 02:24:02;;;;;;;8.33;4.47;;;;;;;17.00;90.67;99435.80;1775879;79;20979;-62
2022/08/29 02:26:28;;;;;;;8.58;3.47;;;;;;;16.93;90.49;99426.67;1770398;79;21995;-62
2022/08/29 02:28:56;;;;;;;13.48;4.40;;;;;;;16.90;90.63;99425.59;1774076;79;20899;-62
2022/08/29 02:31:24;;;;;;;9.58;4.10;;;;;;;16.87;90.72;99425.84;1779479;79;20942;-62
2022/08/29 02:33:52;;;;;;;12.20;3.75;;;;;;;16.84;90.62;99424.77;1776077;79;21481;-62
2022/08/29 02:36:20;;;;;;;7.72;3.35;;;;;;;16.82;90.78;99422.72;1778419;79;20918;-62
2022/08/29 02:38:46;;;;;;;11.12;4.55;;;;;;;16.82;90.87;99418.28;1770208;79;21033;-62
2022/08/29 02:41:14;;;;;;;10.45;3.83;;;;;;;16.76;90.83;99419.59;1774947;79;20891;-62
2022/08/29 02:43:41;;;;;;;;;;;;;;;16.75;90.96;99415.26;1783068;79;20894;-62
2022/08/29 02:46:08;;;;;;;8.58;3.60;;;;;;;16.76;91.16;99410.37;1771186;79;20176;-62
2022/08/29 02:48:35;;;;;;;;;;;;;;;16.73;91.05;99411.89;1757388;79;20905;-62
2022/08/29 02:51:01;;;;;;;;;;;;;;;16.72;91.10;99414.64;1775504;79;21058;-62
2022/08/29 02:53:30;;;;;;;15.13;4.00;;;;;;;16.68;91.16;99413.21;1777196;79;20761;-62
2022/08/29 02:55:57;;;;;;;10.72;3.30;;;;;;;16.67;91.15;99414.18;1768457;79;20938;-62
2022/08/29 02:58:24;;;;;;;8.88;3.55;;;;;;;16.67;91.15;99417.65;1771139;79;21024;-62
2022/08/29 03:00:52;;;;;;;11.70;4.28;;;;;;;16.66;91.10;99418.59;1775837;79;20911;-62
2022/08/29 03:03:19;;;;;;;7.65;3.75;;;;;;;16.64;91.22;99407.34;1779486;79;21049;-62
2022/08/29 03:05:46;;;;;;;9.03;3.70;;;;;;;16.66;91.21;99415.95;1768869;79;20903;-62
2022/08/29 03:08:13;;;;;;;8.63;3.98;;;;;;;16.65;91.14;99412.13;1776637;79;20892;-62
2022/08/29 03:10:41;;;;;;;10.30;4.35;;;;;;;16.62;91.19;99409.25;1774347;79;20932;-62
2022/08/29 03:13:09;;;;;;;10.10;4.53;;;;;;;16.61;91.15;99410.22;1774434;79;20891;-62
2022/08/29 03:15:36;;;;;;;9.58;3.50;;;;;;;16.60;91.21;99411.16;1773801;79;21939;-62
2022/08/29 03:18:03;;;;;;;8.28;3.90;;;;;;;16.59;91.19;99410.81;1773751;79;21040;-62
2022/08/29 03:20:30;;;;;;;11.57;3.77;;;;;;;16.57;91.22;99408.77;1772853;79;21511;-62
2022/08/29 03:22:56;;;;;;;6.30;3.45;;;;;;;16.54;91.28;99410.32;1767283;79;21515;-62
2022/08/29 03:25:24;;;;;;;12.20;3.98;;;;;;;16.54;91.29;99410.32;1775394;79;20914;-62
2022/08/29 03:27:51;;;;;;;;;;;;;;;16.52;91.31;99409.14;1775750;79;21890;-62
2022/08/29 03:30:19;;;;;;;7.45;3.47;;;;;;;16.48;91.33;99406.36;1774766;79;20409;-61
2022/08/29 03:32:47;;;;;;;14.58;4.85;;;;;;;16.46;91.25;99408.75;1769329;79;20956;-61
2022/08/29 03:35:16;;;;;;;11.95;4.40;;;;;;;16.45;91.31;99411.03;1771625;79;20950;-62
2022/08/29 03:37:44;;;;;;;8.23;3.92;;;;;;;16.43;91.39;99408.98;1769975;79;20955;-62
2022/08/29 03:40:11;;;;;;;10.45;4.20;;;;;;;16.42;91.37;99406.00;1774177;79;21042;-62
2022/08/29 03:42:39;;;;;;;8.50;4.78;;;;;;;16.41;91.33;99411.75;1770721;79;20880;-62
2022/08/29 03:45:10;;;;;;;8.55;4.50;;;;;;;16.40;91.47;99403.95;1772942;79;20888;-62
2022/08/29 03:47:38;;;;;;;7.53;4.05;;;;;;;16.34;91.58;99406.09;1773843;79;20891;-62
2022/08/29 03:50:05;;;;;;;;;;;;;;;16.34;91.55;99406.09;1769330;79;20977;-62
2022/08/29 03:52:31;;;;;;;9.20;4.30;;;;;;;16.33;91.64;99400.47;1772230;79;21030;-62
2022/08/29 03:54:58;;;;;;;11.57;4.20;;;;;;;16.34;92.10;99408.73;1769955;79;20843;-62
2022/08/29 03:57:26;;;;;;;7.03;4.08;;;;;;;16.34;92.10;99408.73;1775180;79;25984;-62
2022/08/29 03:59:52;;;;;;;8.00;4.45;;;;;;;16.33;91.93;99412.33;1768182;79;21314;-62
2022/08/29 04:02:19;;;;;;;13.03;5.33;;;;;;;16.39;91.85;99422.05;1769084;79;21564;-62
2022/08/29 04:07:51;;;;;;;10.60;4.12;;;;;;;16.42;91.91;99427.91;1779768;78;20950;-62
2022/08/29 04:10:23;;;;;;;9.68;4.12;;;;;;;16.45;91.96;99429.48;1771395;79;20932;-62
2022/08/29 04:12:50;;;;;;;12.65;4.50;;;;;;;16.48;91.95;99430.56;1776489;79;20919;-62
2022/08/29 04:15:17;;;;;;;9.63;4.08;;;;;;;16.49;91.99;99427.79;1772669;79;20970;-62
2022/08/29 04:17:44;;;;;;;11.75;5.15;;;;;;;16.53;92.08;99428.42;1770735;79;21007;-62
2022/08/29 04:20:13;;;;;;;11.93;4.35;;;;;;;16.56;92.10;99429.50;1772878;79;20957;-62
2022/08/29 04:22:42;;;;;;;8.38;4.45;;;;;;;16.58;91.92;99426.28;1760236;79;21002;-62
2022/08/29 04:25:12;;;;;;;7.17;4.03;;;;;;;16.58;91.93;99421.00;1774702;79;20961;-62
2022/08/29 04:27:40;;;;;;;7.58;3.83;;;;;;;16.60;91.96;99429.61;1775338;79;21491;-62
2022/08/29 04:30:15;;;;;;;13.72;4.62;;;;;;;16.61;91.92;99436.58;1772627;79;21485;-62
2022/08/29 04:32:42;;;;;;;8.53;3.95;;;;;;;16.64;92.06;99431.55;1798441;78;20894;-62
2022/08/29 04:35:11;;;;;;;8.25;3.87;;;;;;;16.65;91.95;99435.38;1771869;80;20873;-62
2022/08/29 04:37:40;;;;;;;8.95;4.33;;;;;;;16.64;91.85;99438.98;1794029;79;20906;-62
2022/08/29 04:40:09;;;;;;;6.70;3.52;;;;;;;16.63;92.05;99439.91;1772956;79;20930;-62
2022/08/29 04:42:37;;;;;;;7.45;3.60;;;;;;;16.64;92.03;99444.25;1776584;79;21032;-63
2022/08/29 04:45:06;;;;;;;15.15;4.10;;;;;;;16.66;92.19;99444.95;1775192;79;21030;-63
2022/08/29 04:47:36;;;;;;;9.20;3.87;;;;;;;16.69;92.18;99444.73;1780326;79;21041;-63
2022/08/29 04:50:05;;;;;;;13.50;4.03;;;;;;;16.72;92.28;99441.86;1780368;79;20884;-63
2022/08/29 04:52:31;;;;;;;9.30;4.00;;;;;;;16.74;92.21;99439.92;1766100;79;20937;-63
2022/08/29 04:54:59;;;;;;;8.80;3.77;;;;;;;16.76;92.25;99445.95;1779404;79;21096;-63
2022/08/29 04:57:25;;;;;;;6.65;3.50;;;;;;;16.80;92.27;99444.41;1779605;79;20915;-63
2022/08/29 04:59:57;;;;;;;9.35;3.30;;;;;;;16.81;92.31;99444.78;1781874;79;20898;-63
2022/08/29 05:02:27;;;;;;;8.75;3.37;;;;;;;16.83;92.30;99442.84;1773378;79;20910;-63
2022/08/29 05:04:55;;;;;;;9.08;3.87;;;;;;;16.85;92.44;99443.57;1779565;79;20954;-63
2022/08/29 05:07:24;;;;;;;7.62;3.72;;;;;;;16.90;92.45;99446.70;1770826;79;21004;-63
2022/08/29 05:10:02;;;;;;;9.35;3.47;;;;;;;16.97;92.65;99441.28;1778955;79;21425;-62
2022/08/29 05:12:30;;;;;;;8.80;3.55;;;;;;;17.10;92.86;99453.88;1774920;79;21456;-63
2022/08/29 05:14:57;;;;;;;7.25;3.85;;;;;;;17.25;92.81;99450.50;1797669;78;20883;-63
2022/08/29 05:17:24;;;;;;;9.53;3.52;;;;;;;17.32;92.58;99446.91;1771680;80;21643;-63
2022/08/29 05:19:51;;;;;;;;;;;;;;;17.38;92.59;99443.78;1798751;78;21097;-63
2022/08/29 05:22:20;;;;;;;11.63;3.27;;;;;;;17.54;93.00;99449.52;1772518;78;20474;-63
2022/08/29 05:24:47;;;;;;;8.38;3.22;;;;;;;17.61;92.63;99447.20;1777203;78;21096;-63
2022/08/29 05:27:18;;;;;;;5.70;3.50;;;;;;;17.66;92.57;99448.51;1786596;79;21014;-63
2022/08/29 05:29:50;;;;;;;9.38;3.17;;;;;;;17.79;92.63;99450.20;1784507;79;20942;-62
2022/08/29 05:32:18;;;;;;;14.25;3.65;;;;;;;18.24;94.35;99450.02;1792456;78;21007;-62
2022/08/29 05:34:46;;;;;;;6.37;2.67;;;;;;;19.20;93.43;99444.91;1769279;78;20918;-61
2022/08/29 05:37:18;;;;;;;8.38;2.90;;;;;;;19.78;93.84;99445.07;1775838;78;21444;-63
2022/08/29 05:39:46;;;;;;;9.10;3.00;;;;;;;20.61;93.52;99449.42;1731606;80;20907;-63
2022/08/29 05:42:18;;;;;;;7.47;2.72;;;;;;;21.30;91.87;99447.36;1796087;78;20895;-63
2022/08/29 05:44:45;;;;;;;5.83;2.60;;;;;;;21.54;90.47;99455.65;1795107;78;21027;-64
2022/08/29 05:47:14;;;;;;;8.45;2.90;;;;;;;22.01;91.71;99452.77;1762458;80;20904;-64
2022/08/29 05:49:43;;;;;;;7.33;2.95;;;;;;;22.88;91.28;99450.28;1795691;78;21434;-64
2022/08/29 05:52:12;;;;;;;8.33;2.77;;;;;;;23.61;90.76;99449.76;1793904;78;20967;-63
2022/08/29 05:54:40;;;;;;;6.92;2.70;;;;;;;24.02;89.67;99444.53;1791437;79;21542;-64
2022/08/29 05:57:11;;;;;;;7.60;2.65;;;;;;;24.37;88.60;99445.19;1772315;79;21893;-65
2022/08/29 05:59:38;;;;;;;5.72;2.33;;;;;;;24.49;88.28;99451.90;1777548;79;21013;-65
2022/08/29 06:02:07;;;;;;;6.80;2.85;;;;;;;24.97;89.42;99444.27;1775224;79;20945;-65
2022/08/29 06:04:34;;;;;;;5.37;2.20;;;;;;;25.51;87.74;99447.57;1774739;79;20922;-65
2022/08/29 06:07:04;;;;;;;7.47;2.42;;;;;;;25.21;86.05;99458.09;1773588;79;20874;-66
2022/08/29 06:09:30;;;;;;;7.45;3.10;;;;;;;24.86;85.26;99451.83;1770118;79;21040;-66
2022/08/29 06:11:57;;;;;;;5.25;2.55;;;;;;;25.00;85.11;99456.45;1774412;79;20938;-65
2022/08/29 06:14:25;;;;;;;4.17;2.25;;;;;;;25.28;85.60;99460.06;1772102;79;20977;-64
2022/08/29 06:16:53;;;;;;;4.97;2.35;;;;;;;25.78;85.46;99461.47;1766435;79;21416;-64
2022/08/29 06:19:20;;;;;;;6.42;2.40;;;;;;;26.03;84.11;99460.31;1780190;79;20947;-64
2022/08/29 06:21:47;;;;;;;5.05;2.33;;;;;;;26.34;83.55;99456.73;1774028;79;21043;-62
2022/08/29 06:24:14;;;;;;;4.55;2.00;;;;;;;26.67;83.09;99456.46;1772345;78;20880;-62
2022/08/29 06:26:44;;;;;;;4.87;2.20;;;;;;;26.55;82.27;99456.91;1773562;79;20973;-62
2022/08/29 06:29:11;;;;;;;83.62;59.33;;;;;;;26.79;81.92;99452.30;1771033;79;20954;-63
2022/08/29 06:31:38;;;;;;;59.80;45.40;;;;;;;26.96;82.08;99456.46;1771880;78;21428;-62
2022/08/29 06:34:06;;;;;;;14.55;12.07;;;;;;;27.21;81.39;99457.03;1770184;79;21047;-62
2022/08/29 06:36:34;;;;;;;4.00;2.50;;;;;;;27.15;80.04;99454.25;1773809;79;20987;-63
2022/08/29 06:39:05;;;;;;;5.83;2.40;;;;;;;27.27;80.21;99460.81;1765881;79;20950;-63
2022/08/29 06:41:33;;;;;;;4.45;2.60;;;;;;;27.53;80.11;99464.84;1741968;78;21496;-62
2022/08/29 06:44:01;;;;;;;5.12;1.75;;;;;;;27.66;78.96;99462.31;1792999;78;20930;-62
2022/08/29 06:46:42;;;;;;;7.40;2.17;;;;;;;27.82;78.46;99466.66;1795039;78;21002;-63
2022/08/29 06:49:12;;;;;;;3.10;1.50;;;;;;;27.79;78.14;99473.23;1793984;78;20933;-63
2022/08/29 06:51:43;;;;;;;4.70;1.75;;;;;;;27.72;77.28;99470.94;1798696;78;20950;-63
2022/08/29 06:54:15;;;;;;;5.00;2.15;;;;;;;27.74;77.09;99475.61;1784610;79;20922;-63
2022/08/29 06:56:42;;;;;;;3.87;1.82;;;;;;;27.79;76.54;99473.23;1796264;78;20981;-62
2022/08/29 06:59:10;;;;;;;8.63;2.02;;;;;;;28.00;76.15;99482.30;1784719;78;21346;-62
2022/08/29 07:01:37;;;;;;;3.10;1.50;;;;;;;27.79;74.61;99483.96;1765665;78;88685;-62
2022/08/29 07:04:03;;;;;;;4.55;1.57;;;;;;;27.41;74.05;99486.77;1721061;82;20965;-62
2022/08/29 07:06:31;;;;;;;9.83;2.08;;;;;;;26.92;73.83;99484.65;1717907;81;21001;-61
2022/08/29 07:08:58;;;;;;;3.60;1.82;;;;;;;26.56;73.59;99486.67;1720566;82;21010;-61
2022/08/29 07:11:28;;;;;;;4.33;1.65;;;;;;;26.39;74.00;99490.48;1719294;82;21016;-62
2022/08/29 07:13:59;;;;;;;6.78;1.92;;;;;;;25.97;73.21;99487.78;1716535;82;20927;-62
2022/08/29 07:16:27;;;;;;;2.72;1.42;;;;;;;25.65;73.56;99488.29;1716138;82;21017;-62
2022/08/29 07:18:55;;;;;;;3.58;1.40;;;;;;;25.51;73.20;99490.84;1721811;82;21020;-62
2022/08/29 07:21:24;;;;;;;6.42;1.37;;;;;;;25.17;73.00;99491.48;1721628;81;21033;-62
2022/08/29 07:23:54;;;;;;;3.05;1.22;;;;;;;24.76;72.12;99498.25;1734730;82;22088;-62
2022/08/29 07:26:30;;;;;;;3.87;1.50;;;;;;;24.29;71.80;99490.90;1731929;80;20946;-62
2022/08/29 07:28:59;;;;;;;;;;;;;;;24.32;73.04;99494.56;1730970;81;20914;-62
2022/08/29 07:31:26;;;;;;;3.65;1.50;;;;;;;24.20;71.19;99497.71;1731272;82;20142;-62
2022/08/29 07:33:53;;;;;;;5.05;1.35;;;;;;;23.76;71.25;99501.48;1731018;82;20874;-62
2022/08/29 07:36:19;;;;;;;2.45;1.37;;;;;;;23.62;71.12;99503.41;1726274;82;21133;-62
2022/08/29 07:38:46;;;;;;;2.52;1.10;;;;;;;23.47;71.18;99503.20;1723984;82;20942;-62
2022/08/29 07:41:14;;;;;;;5.15;1.35;;;;;;;23.25;70.97;99497.95;1732927;81;20898;-62
2022/08/29 07:43:42;;;;;;;3.87;1.60;;;;;;;22.98;70.80;99501.12;1730205;82;20924;-61
2022/08/29 07:46:12;;;;;;;4.12;1.62;;;;;;;22.88;71.34;99503.05;1728678;81;20957;-62
2022/08/29 07:48:40;;;;;;;4.03;1.65;;;;;;;22.87;71.04;99508.52;1729267;82;21051;-62
2022/08/29 07:51:10;;;;;;;5.03;1.32;;;;;;;23.05;72.02;99511.14;1726589;81;20890;-62
2022/08/29 07:53:38;;;;;;;2.12;1.20;;;;;;;23.28;71.96;99502.95;1727098;81;21498;-62
2022/08/29 07:56:08;;;;;;;3.25;1.30;;;;;;;23.82;72.41;99500.83;1728013;81;20989;-62
2022/08/29 07:58:40;;;;;;;3.08;1.20;;;;;;;24.07;71.48;99493.71;1718456;82;20919;-62
2022/08/29 08:01:09;;;;;;;3.12;1.02;;;;;;;24.15;70.43;99500.89;1743013;81;21013;-62
2022/08/29 08:03:36;;;;;;;4.10;1.25;;;;;;;23.82;69.65;99502.67;1731175;82;20950;-62
2022/08/29 08:06:04;;;;;;;;;;;;;;;23.27;69.52;99502.59;1735649;81;20962;-62
2022/08/29 08:08:31;;;;;;;4.17;1.10;;;;;;;22.70;69.19;99506.23;1733735;82;20100;-62
2022/08/29 08:10:57;;;;;;;;;;;;;;;22.42;69.67;99512.17;1730388;82;20945;-61
2022/08/29 08:13:23;;;;;;;;;;;;;;;22.41;70.30;99503.86;1729448;82;21220;-62
2022/08/29 08:15:54;;;;;;;4.10;1.17;;;;;;;22.70;70.74;99498.25;1731947;82;20132;-62
2022/08/29 08:18:21;;;;;;;1.82;1.10;;;;;;;22.92;70.72;99500.39;1724872;82;20989;-62
2022/08/29 08:20:48;;;;;;;1.95;1.00;;;;;;;23.15;70.35;99490.56;1729493;81;21525;-62
2022/08/29 08:23:16;;;;;;;2.30;1.25;;;;;;;23.44;70.33;99500.36;1732925;82;20977;-62
2022/08/29 08:25:44;;;;;;;2.02;1.10;;;;;;;23.59;70.08;99496.58;1727042;82;21767;-61
2022/08/29 08:28:15;;;;;;;5.58;1.30;;;;;;;23.62;69.91;99502.91;1728868;82;20875;-62
2022/08/29 08:30:42;;;;;;;2.08;0.90;;;;;;;23.23;68.41;99497.27;1724866;81;20983;-62
2022/08/29 08:33:09;;;;;;;6.03;0.98;;;;;;;23.18;69.30;99496.91;1749779;81;20962;-62
2022/08/29 08:35:38;;;;;;;1.45;1.00;;;;;;;23.29;69.55;99503.78;1731491;82;20958;-63
2022/08/29 08:38:07;;;;;;;2.22;1.05;;;;;;;23.68;69.76;99490.77;1732027;80;21098;-62
2022/08/29 08:40:39;;;;;;;4.00;0.90;;;;;;;24.11;69.57;99498.20;1728312;81;20950;-62
2022/08/29 08:43:09;;;;;;;3.45;1.25;;;;;;;24.40;69.07;99491.58;1715105;82;21427;-63
2022/08/29 08:45:41;;;;;;;1.85;0.90;;;;;;;24.55;69.04;99492.59;1700482;82;21460;-62
2022/08/29 08:48:18;;;;;;;3.52;1.10;;;;;;;24.84;69.13;99496.55;1725411;82;20947;-62
2022/08/29 08:51:10;;;;;;;2.10;1.00;;;;;;;25.13;68.25;99500.00;1739323;81;21069;-62
2022/08/29 08:53:41;;;;;;;3.70;1.17;;;;;;;25.10;67.96;99495.83;1718479;82;20902;-62
2022/08/29 08:56:33;;;;;;;4.05;1.37;;;;;;;24.95;67.51;99494.85;1720980;81;20942;-62
2022/08/29 08:59:29;;;;;;;5.00;1.10;;;;;;;24.64;67.03;99499.58;1715317;82;21057;-61
2022/08/29 09:02:01;;;;;;;3.90;1.12;;;;;;;24.15;66.58;99495.56;1731373;81;20981;-62
2022/08/29 09:04:55;;;;;;;3.00;1.00;;;;;;;23.79;66.96;99490.50;1727354;82;21502;-61
2022/08/29 09:07:45;;;;;;;2.37;1.07;;;;;;;23.82;67.08;99491.50;1728041;81;20942;-61
2022/08/29 09:10:34;;;;;;;5.67;1.12;;;;;;;23.86;66.43;99493.33;1725816;82;21451;-62
2022/08/29 09:13:20;;;;;;;2.12;0.95;;;;;;;23.93;66.80;99492.20;1668163;83;21042;-61
2022/08/29 09:15:51;;;;;;;3.00;1.20;;;;;;;23.99;66.51;99495.03;1672625;84;21463;-62
2022/08/29 09:18:40;;;;;;;1.80;1.25;;;;;;;24.33;66.67;99492.72;1701137;82;32712;-61
2022/08/29 09:21:16;;;;;;;4.08;1.30;;;;;;;24.62;66.45;99492.27;1649267;85;21098;-62
2022/08/29 09:23:50;;;;;;;3.17;1.25;;;;;;;24.78;66.00;99497.55;1623945;85;28191;-62
2022/08/29 09:26:20;;;;;;;1.90;1.27;;;;;;;24.66;65.58;99490.91;1654849;85;20898;-61
2022/08/29 09:28:49;;;;;;;10.00;1.37;;;;;;;24.75;65.69;99501.90;1649609;85;21021;-61
2022/08/29 09:31:32;;;;;;;2.25;1.10;;;;;;;24.82;65.35;99511.42;1639614;85;21075;-61
2022/08/29 09:34:03;;;;;;;2.37;1.10;;;;;;;24.56;65.17;99500.92;1651063;85;20990;-61
2022/08/29 09:36:52;;;;;;;8.05;1.10;;;;;;;24.18;64.72;99527.23;1663607;85;21032;-61
2022/08/29 09:39:31;;;;;;;1.67;0.90;;;;;;;23.74;64.55;99516.80;1658143;85;20938;-62
2022/08/29 09:42:12;;;;;;;2.45;1.15;;;;;;;23.19;64.39;99515.88;1657199;84;20997;-61
2022/08/29 09:44:42;;;;;;;1.70;0.72;;;;;;;22.73;64.42;99519.23;1664777;85;21125;-61
2022/08/29 09:47:17;;;;;;;1.60;1.07;;;;;;;22.64;65.36;99507.69;1645142;85;21747;-61
2022/08/29 09:50:05;;;;;;;3.08;1.15;;;;;;;22.81;65.65;99513.97;1661047;83;20910;-61
2022/08/29 09:52:35;;;;;;;1.72;0.88;;;;;;;23.01;65.71;99516.78;1691819;84;20935;-61
2022/08/29 09:55:25;;;;;;;5.45;1.20;;;;;;;23.23;65.77;99509.25;1664575;84;21036;-61
2022/08/29 09:58:00;;;;;;;4.53;1.65;;;;;;;23.35;65.54;99514.63;1696556;84;21112;-61
2022/08/29 10:00:37;;;;;;;3.42;1.22;;;;;;;23.38;65.77;99516.97;1702566;84;20984;-62
2022/08/29 10:03:08;;;;;;;1.77;1.02;;;;;;;23.41;65.75;99520.67;1700065;83;21005;-61
2022/08/29 10:05:44;;;;;;;2.27;1.10;;;;;;;23.58;65.87;99516.71;1697556;84;20918;-62
2022/08/29 10:08:34;;;;;;;3.02;1.00;;;;;;;23.69;66.01;99512.42;1698426;83;20919;-62
2022/08/29 10:11:05;;;;;;;3.15;1.10;;;;;;;23.88;66.16;99505.50;1660440;85;21391;-62
2022/08/29 10:13:46;;;;;;;1.62;1.22;;;;;;;24.00;65.66;99506.53;1647593;86;20883;-62
2022/08/29 10:16:18;;;;;;;2.67;1.15;;;;;;;24.14;65.96;99504.55;1650253;86;21010;-62
2022/08/29 10:18:58;;;;;;;3.70;1.20;;;;;;;24.31;65.91;99506.25;1661983;85;20950;-62
2022/08/29 10:22:00;;;;;;;2.75;1.20;;;;;;;24.52;65.87;99507.61;1675450;82;57754;-63
2022/08/29 10:25:05;;;;;;;2.98;1.10;;;;;;;24.78;65.55;99504.23;1672765;84;21456;-62
2022/08/29 10:28:24;;;;;;;3.02;1.07;;;;;;;25.03;65.26;99508.70;1589656;88;20950;-62
2022/08/29 10:31:00;;;;;;;2.87;1.25;;;;;;;24.83;64.16;99516.25;1591699;89;21021;-61
2022/08/29 10:34:01;;;;;;;3.75;1.40;;;;;;;24.40;64.30;99523.09;1590957;88;21586;-61
2022/08/29 10:36:35;;;;;;;3.27;1.27;;;;;;;24.48;64.66;99522.30;1597399;87;20991;-61
2022/08/29 10:39:15;;;;;;;3.87;1.30;;;;;;;24.48;64.18;99527.64;1598758;87;21130;-61
2022/08/29 10:42:04;;;;;;;5.12;1.30;;;;;;;24.37;64.38;99526.09;1582406;88;21577;-61
2022/08/29 10:44:54;;;;;;;4.90;2.17;;;;;;;24.46;64.42;99518.95;1581994;89;20958;-61
2022/08/29 10:48:00;;;;;;;2.85;1.30;;;;;;;24.38;64.18;99518.92;1579269;88;20995;-61
2022/08/29 10:50:35;;;;;;;5.42;1.20;;;;;;;24.25;63.95;99506.89;1577196;88;21032;-61
2022/08/29 10:53:24;;;;;;;3.83;1.55;;;;;;;24.12;63.68;99518.56;1578592;88;21867;-61
2022/08/29 10:55:59;;;;;;;1.82;1.00;;;;;;;23.96;63.84;99527.87;1574710;88;21003;-60
2022/08/29 10:58:57;;;;;;;3.60;1.40;;;;;;;23.76;63.53;99520.15;1575657;88;20959;-63
2022/08/29 11:01:35;;;;;;;2.83;1.35;;;;;;;23.68;64.25;99521.42;1579246;90;21068;-63
2022/08/29 11:04:21;;;;;;;3.87;1.70;;;;;;;24.01;64.03;99522.88;1607219;87;20946;-64
2022/08/29 11:07:08;;;;;;;2.35;1.42;;;;;;;24.24;64.26;99513.23;1609502;88;21034;-63
2022/08/29 11:09:49;;;;;;;4.80;1.20;;;;;;;24.43;64.32;99521.93;1611754;88;20922;-63
2022/08/29 11:12:46;;;;;;;4.28;1.30;;;;;;;24.55;64.13;99509.94;1611432;87;21050;-63
2022/08/29 11:15:27;;;;;;;1.98;1.10;;;;;;;24.50;63.74;99502.42;1604593;88;21012;-63
2022/08/29 11:18:02;;;;;;;2.15;0.95;;;;;;;24.31;63.87;99503.58;1597639;87;20978;-62
2022/08/29 11:20:37;;;;;;;3.05;1.20;;;;;;;24.07;61.93;99514.22;1610491;86;21077;-63
2022/08/29 11:23:30;;;;;;;1.90;0.90;;;;;;;23.63;62.67;99521.06;1624449;86;21029;-62
2022/08/29 11:26:01;;;;;;;6.15;1.02;;;;;;;23.44;63.08;99528.34;1700374;82;20883;-63
2022/08/29 11:28:51;;;;;;;1.47;0.93;;;;;;;23.47;63.53;99520.53;1700251;83;21456;-63
2022/08/29 11:31:54;;;;;;;2.55;1.17;;;;;;;23.89;63.53;99512.53;1703088;83;20914;-62
2022/08/29 11:34:55;;;;;;;3.22;1.20;;;;;;;24.30;63.71;99505.89;1699774;83;21308;-62
2022/08/29 11:37:27;;;;;;;1.15;0.75;;;;;;;24.58;63.48;99508.27;1603103;88;21050;-62
2022/08/29 11:40:05;;;;;;;2.83;1.45;;;;;;;24.85;63.48;99507.58;1605383;88;20981;-62
2022/08/29 11:42:39;;;;;;;2.95;1.20;;;;;;;25.03;62.67;99524.22;1605117;88;20981;-62
2022/08/29 11:45:11;;;;;;;1.67;1.05;;;;;;;24.46;60.58;99512.28;1609862;86;20998;-62
2022/08/29 11:47:59;;;;;;;1.22;0.72;;;;;;;23.82;61.60;99518.16;1609335;88;21260;-62
2022/08/29 11:50:32;;;;;;;4.17;1.40;;;;;;;23.39;61.65;99521.32;1601558;87;20971;-62
2022/08/29 11:53:32;;;;;;;9.75;1.52;;;;;;;23.45;62.50;99510.02;1607346;88;20945;-62
2022/08/29 11:56:18;;;;;;;1.17;0.80;;;;;;;23.93;62.94;99509.53;1599991;87;20978;-61
2022/08/29 11:58:48;;;;;;;5.70;2.00;;;;;;;24.46;62.33;99510.95;1563958;89;20953;-61
2022/08/29 12:01:38;;;;;;;5.45;1.35;;;;;;;24.86;62.50;99526.09;1603275;88;21065;-62
2022/08/29 12:04:08;;;;;;;3.08;1.10;;;;;;;25.30;61.88;99522.19;1596441;89;20992;-62